Time;durP1;ratioP1;P1;durP2;ratioP2;P2;SDS_P1;SDS_P2;PMS_P1;PMS_P2;Temp;Humidity;BMP_temperature;BMP_pressure;BME280_temperature;BME280_humidity;BME280_pressure;Samples;Min_cycle;Max_cycle;Signal;HPM_P1;HPM_P2
2022/06/26 00:00:16;;;;;;;16.00;13.60;;;;;;;18.10;100.00;100941.91;5003121;28;20035;-74
2022/06/26 00:02:41;;;;;;;15.20;13.00;;;;;;;18.12;100.00;100937.16;4987377;28;20057;-73
2022/06/26 00:05:07;;;;;;;16.23;12.97;;;;;;;18.10;100.00;100943.78;4987424;28;20041;-75
2022/06/26 00:07:34;;;;;;;15.50;13.35;;;;;;;18.07;100.00;100942.31;4988164;28;20030;-75
2022/06/26 00:10:00;;;;;;;14.82;13.15;;;;;;;18.06;100.00;100946.06;4988223;28;20038;-74
2022/06/26 00:12:25;;;;;;;16.77;13.05;;;;;;;18.05;100.00;100948.97;5003585;28;20026;-75
2022/06/26 00:14:51;;;;;;;15.50;13.88;;;;;;;18.07;100.00;100949.59;4987924;28;20080;-74
2022/06/26 00:17:16;;;;;;;14.33;12.83;;;;;;;18.07;100.00;100950.41;5019792;28;20065;-74
2022/06/26 00:19:41;;;;;;;13.53;12.13;;;;;;;18.07;100.00;100955.81;4987391;28;20419;-74
2022/06/26 00:22:08;;;;;;;16.10;13.93;;;;;;;18.07;100.00;100949.59;5000386;28;20049;-74
2022/06/26 00:24:34;;;;;;;16.83;13.05;;;;;;;18.04;100.00;100950.84;4970745;28;20456;-75
2022/06/26 00:27:02;;;;;;;16.05;12.82;;;;;;;18.05;100.00;100955.22;4987800;28;20509;-75
2022/06/26 00:29:29;;;;;;;14.27;12.73;;;;;;;18.00;100.00;100949.59;5003075;28;20038;-75
2022/06/26 00:31:55;;;;;;;13.27;11.52;;;;;;;18.00;100.00;100954.97;5003221;28;20026;-74
2022/06/26 00:34:21;;;;;;;14.10;12.63;;;;;;;17.98;100.00;100951.69;5003002;28;20738;-74
2022/06/26 00:36:46;;;;;;;14.40;12.00;;;;;;;17.95;100.00;100953.94;5002507;28;20647;-73
2022/06/26 00:39:11;;;;;;;14.27;11.90;;;;;;;17.93;100.00;100943.34;4994843;28;20042;-74
2022/06/26 00:41:38;;;;;;;15.00;12.07;;;;;;;17.86;100.00;100945.22;5002697;28;20148;-74
2022/06/26 00:44:18;;;;;;;16.52;13.20;;;;;;;17.82;100.00;100941.28;4985883;28;20046;-74
2022/06/26 00:46:45;;;;;;;14.38;12.88;;;;;;;17.75;100.00;100935.81;4985691;28;20065;-74
2022/06/26 00:49:11;;;;;;;13.98;12.45;;;;;;;17.75;100.00;100935.81;4985959;28;20133;-75
2022/06/26 00:51:38;;;;;;;;;;;;;;;17.77;100.00;100947.25;4969916;28;20073;-74
2022/06/26 00:54:06;;;;;;;15.65;13.65;;;;;;;17.71;100.00;100932.69;5001681;28;20394;-75
2022/06/26 00:56:31;;;;;;;14.43;12.48;;;;;;;17.68;100.00;100930.41;4990306;28;20519;-74
2022/06/26 00:58:56;;;;;;;17.43;13.13;;;;;;;17.71;100.00;100935.41;4994747;28;20027;-74
2022/06/26 01:01:22;;;;;;;15.53;13.90;;;;;;;17.71;100.00;100930.00;4986174;28;20038;-75
2022/06/26 01:03:47;;;;;;;15.90;14.13;;;;;;;17.77;100.00;100933.75;4985618;28;20088;-74
2022/06/26 01:06:13;;;;;;;15.63;13.87;;;;;;;17.81;100.00;100924.22;5018320;28;20552;-74
2022/06/26 01:08:38;;;;;;;17.30;14.87;;;;;;;17.81;100.00;100928.78;4985062;28;20018;-75
2022/06/26 01:11:17;;;;;;;19.10;16.23;;;;;;;17.80;100.00;100929.81;4984925;28;20030;-74
2022/06/26 01:13:48;;;;;;;14.43;13.02;;;;;;;17.78;100.00;100924.59;4985298;28;20038;-74
2022/06/26 01:16:15;;;;;;;16.75;14.18;;;;;;;17.76;100.00;100923.16;5018100;28;20045;-74
2022/06/26 01:18:42;;;;;;;13.48;12.10;;;;;;;17.85;100.00;100927.34;4986734;28;20026;-75
2022/06/26 01:21:08;;;;;;;16.83;15.05;;;;;;;17.88;100.00;100926.94;5010190;28;20038;-75
2022/06/26 01:23:33;;;;;;;14.52;13.07;;;;;;;17.80;100.00;100922.53;4969013;28;20068;-74
2022/06/26 01:25:59;;;;;;;15.50;13.33;;;;;;;17.71;100.00;100930.00;4985192;28;20041;-74
2022/06/26 01:28:24;;;;;;;15.53;13.27;;;;;;;17.66;100.00;100923.56;4993513;28;20490;-74
2022/06/26 01:30:49;;;;;;;15.30;13.30;;;;;;;17.60;100.00;100921.66;4984907;28;20030;-75
2022/06/26 01:33:15;;;;;;;13.53;12.10;;;;;;;17.60;100.00;100903.59;5001201;28;20088;-75
2022/06/26 01:35:40;;;;;;;14.25;12.85;;;;;;;17.60;100.00;100905.47;4991413;28;20548;-74
2022/06/26 01:38:15;;;;;;;18.77;12.90;;;;;;;17.57;100.00;100904.00;4984649;28;20033;-74
2022/06/26 01:40:42;;;;;;;16.60;13.73;;;;;;;17.51;100.00;100907.50;4990745;28;20022;-74
2022/06/26 01:43:13;;;;;;;15.68;13.75;;;;;;;17.52;100.00;100904.63;5001069;28;20411;-75
2022/06/26 01:45:47;;;;;;;13.55;12.07;;;;;;;17.55;100.00;100908.78;4974555;28;20022;-75
2022/06/26 01:48:14;;;;;;;15.65;14.05;;;;;;;17.57;100.00;100892.38;5017372;28;20038;-74
2022/06/26 01:50:40;;;;;;;14.93;13.30;;;;;;;17.60;100.00;100890.09;4984685;28;20073;-75
2022/06/26 01:53:07;;;;;;;19.42;15.95;;;;;;;17.73;100.00;100909.03;4993398;28;20039;-74
2022/06/26 01:55:33;;;;;;;17.77;15.57;;;;;;;17.72;100.00;100910.06;4973685;28;20017;-74
2022/06/26 01:58:02;;;;;;;16.10;14.40;;;;;;;17.75;100.00;100918.78;4996888;28;20060;-74
2022/06/26 02:00:34;;;;;;;16.63;14.85;;;;;;;17.78;100.00;100912.97;4984589;28;20018;-75
2022/06/26 02:03:00;;;;;;;14.93;13.40;;;;;;;17.89;100.00;100921.34;4984478;28;20060;-75
2022/06/26 02:05:26;;;;;;;17.23;14.85;;;;;;;17.99;100.00;100917.41;5000391;28;20154;-75
2022/06/26 02:07:52;;;;;;;15.32;13.70;;;;;;;18.03;100.00;100916.78;4984269;28;20125;-74
2022/06/26 02:15:52;;;;;;;14.75;13.10;;;;;;;18.06;100.00;100904.72;4992195;28;20052;-74
2022/06/26 02:18:18;;;;;;;;;;;;;;;18.13;100.00;100909.06;5000862;28;20022;-75
2022/06/26 02:20:44;;;;;;;;;;;;;;;18.18;100.00;100915.72;4984503;28;20429;-75
2022/06/26 02:23:10;;;;;;;;;;;;;;;18.21;100.00;100912.59;5009978;28;19917;-74
2022/06/26 02:25:36;;;;;;;14.73;13.25;;;;;;;18.14;100.00;100902.66;4984379;28;20028;-75
2022/06/26 02:28:02;;;;;;;18.73;14.30;;;;;;;18.17;100.00;100905.94;4985471;28;20042;-75
2022/06/26 02:30:30;;;;;;;15.45;13.68;;;;;;;18.16;100.00;100909.69;4995961;28;20092;-75
2022/06/26 02:32:56;;;;;;;15.20;13.68;;;;;;;18.10;100.00;100911.38;4992148;28;20485;-75
2022/06/26 02:35:23;;;;;;;17.20;15.40;;;;;;;18.08;100.00;100910.75;5000431;28;20034;-75
2022/06/26 02:37:51;;;;;;;16.95;14.65;;;;;;;18.09;100.00;100917.81;4968088;28;20475;-75
2022/06/26 02:40:20;;;;;;;14.27;12.70;;;;;;;18.11;100.00;100911.16;5000386;28;20030;-75
2022/06/26 02:42:45;;;;;;;15.98;14.30;;;;;;;18.16;100.00;100915.94;4968107;28;20022;-75
2022/06/26 02:45:12;;;;;;;15.48;13.05;;;;;;;18.22;100.00;100927.78;4992706;28;20450;-74
2022/06/26 02:47:38;;;;;;;;;;;;;;;18.20;100.00;100921.75;4990298;28;20117;-75
2022/06/26 02:50:05;;;;;;;17.60;14.65;;;;;;;18.18;100.00;100924.66;5009171;28;19914;-74
2022/06/26 02:52:31;;;;;;;14.38;12.70;;;;;;;18.23;100.00;100921.34;4968135;28;20073;-74
2022/06/26 02:54:58;;;;;;;17.00;15.23;;;;;;;18.23;100.00;100914.06;4984084;28;20136;-75
2022/06/26 02:57:24;;;;;;;22.08;15.52;;;;;;;18.26;100.00;100915.50;4984148;28;20031;-74
2022/06/26 02:59:50;;;;;;;16.83;15.03;;;;;;;18.29;100.00;100920.50;4990972;28;20042;-75
2022/06/26 03:02:18;;;;;;;19.98;16.30;;;;;;;18.30;100.00;100925.69;5000147;28;20065;-74
2022/06/26 03:04:54;;;;;;;19.52;17.40;;;;;;;18.31;100.00;100929.25;4983483;28;20235;-75
2022/06/26 03:07:20;;;;;;;17.23;15.43;;;;;;;18.30;100.00;100919.47;5016532;28;20039;-75
2022/06/26 03:09:46;;;;;;;18.40;16.35;;;;;;;18.36;100.00;100915.94;4967740;28;20317;-74
2022/06/26 03:12:13;;;;;;;23.75;19.55;;;;;;;18.41;100.00;100918.81;5000323;28;20043;-75
2022/06/26 03:14:41;;;;;;;18.02;16.13;;;;;;;18.47;100.00;100923.41;4974226;28;20149;-74
2022/06/26 03:17:07;;;;;;;19.65;17.48;;;;;;;18.55;100.00;100916.94;5018915;28;20172;-74
2022/06/26 03:19:33;;;;;;;19.15;16.73;;;;;;;18.58;100.00;100918.38;4987268;28;20030;-74
2022/06/26 03:21:59;;;;;;;21.50;15.40;;;;;;;18.63;100.00;100916.69;4987485;28;20034;-74
2022/06/26 03:24:24;;;;;;;23.23;16.20;;;;;;;18.60;100.00;100911.72;4996446;28;20573;-75
2022/06/26 03:26:50;;;;;;;22.20;15.63;;;;;;;18.49;100.00;100902.38;4987345;28;20475;-75
2022/06/26 03:29:16;;;;;;;20.80;16.23;;;;;;;18.54;100.00;100908.00;4987176;28;20526;-75
2022/06/26 03:31:43;;;;;;;20.02;15.52;;;;;;;18.58;100.00;100910.28;4986913;28;20092;-74
2022/06/26 03:34:12;;;;;;;20.08;15.98;;;;;;;18.63;100.00;100915.88;5019789;28;20033;-74
2022/06/26 03:36:40;;;;;;;22.67;16.95;;;;;;;18.53;100.00;100910.91;4987727;28;20026;-74
2022/06/26 03:39:05;;;;;;;18.20;15.27;;;;;;;18.63;100.00;100915.88;5003597;28;20120;-75
2022/06/26 03:41:35;;;;;;;20.33;16.60;;;;;;;18.66;100.00;100920.84;5003060;28;20027;-75
2022/06/26 03:44:00;;;;;;;26.60;19.13;;;;;;;18.65;100.00;100909.22;4987437;28;20356;-75
2022/06/26 03:46:26;;;;;;;28.20;17.70;;;;;;;18.67;100.00;100920.66;4995963;28;20034;-75
2022/06/26 03:48:52;;;;;;;19.23;16.98;;;;;;;18.71;100.00;100916.47;4994611;28;20487;-75
2022/06/26 03:51:17;;;;;;;26.77;20.48;;;;;;;18.76;100.00;100924.81;5003289;28;20035;-75
2022/06/26 03:53:43;;;;;;;23.15;19.30;;;;;;;18.71;100.00;100924.59;4988379;28;20034;-74
2022/06/26 03:56:13;;;;;;;26.42;19.05;;;;;;;18.78;100.00;100924.63;5019674;28;20042;-75
2022/06/26 03:58:38;;;;;;;26.00;19.53;;;;;;;18.79;100.00;100922.72;4992666;28;20033;-75
2022/06/26 04:01:04;;;;;;;26.08;19.02;;;;;;;18.82;100.00;100925.84;5003187;28;20057;-75
2022/06/26 04:03:29;;;;;;;32.40;21.77;;;;;;;18.83;100.00;100924.81;4970787;28;20061;-75
2022/06/26 04:05:55;;;;;;;29.90;22.20;;;;;;;18.87;100.00;100927.91;4986896;28;20072;-75
2022/06/26 04:08:20;;;;;;;29.03;24.47;;;;;;;18.79;100.00;100926.25;5002863;28;20026;-75
2022/06/26 04:10:58;;;;;;;29.67;21.88;;;;;;;18.70;100.00;100927.50;4988523;28;20539;-75
2022/06/26 04:13:29;;;;;;;27.77;22.90;;;;;;;18.62;100.00;100936.69;4980222;28;20077;-75
2022/06/26 04:15:55;;;;;;;33.05;23.60;;;;;;;18.58;100.00;100935.44;4994940;28;20034;-75
2022/06/26 04:18:20;;;;;;;31.70;22.00;;;;;;;18.71;100.00;100951.63;4970184;28;20108;-75
2022/06/26 04:20:45;;;;;;;34.33;25.97;;;;;;;18.70;100.00;100951.84;4986323;28;20286;-75
2022/06/26 04:23:11;;;;;;;36.73;24.17;;;;;;;18.66;100.00;100942.47;4987736;28;20479;-75
2022/06/26 04:25:39;;;;;;;34.65;24.80;;;;;;;18.58;100.00;100942.72;4976372;28;20026;-75
2022/06/26 04:28:06;;;;;;;33.20;25.55;;;;;;;18.51;100.00;100956.25;5001917;28;20026;-75
2022/06/26 04:30:36;;;;;;;36.17;25.08;;;;;;;18.57;100.00;100960.81;4986899;28;20031;-75
2022/06/26 04:33:02;;;;;;;39.25;25.67;;;;;;;18.58;100.00;100964.34;4991521;28;20403;-75
2022/06/26 04:35:31;;;;;;;33.75;24.95;;;;;;;18.66;100.00;100958.69;5014569;28;20038;-75
2022/06/26 04:37:57;;;;;;;30.50;25.45;;;;;;;18.72;100.00;100960.56;4985995;28;20026;-74
2022/06/26 04:40:23;;;;;;;42.15;28.67;;;;;;;18.75;100.00;100963.72;4987513;28;20376;-75
2022/06/26 04:42:48;;;;;;;44.60;29.83;;;;;;;18.68;100.00;100951.22;4986168;28;20026;-75
2022/06/26 04:45:14;;;;;;;33.95;24.95;;;;;;;18.80;100.00;100965.81;5002489;28;20042;-75
2022/06/26 04:47:41;;;;;;;33.80;27.40;;;;;;;18.82;100.00;100958.28;4969947;28;20391;-75
2022/06/26 04:50:16;;;;;;;40.47;31.38;;;;;;;18.88;100.00;100960.16;4986883;28;20038;-74
2022/06/26 04:52:46;;;;;;;35.90;29.43;;;;;;;19.12;100.00;100964.03;4985703;28;20049;-75
2022/06/26 04:55:12;;;;;;;36.97;26.10;;;;;;;19.49;100.00;100963.47;5018329;28;20297;-75
2022/06/26 04:57:40;;;;;;;33.65;27.95;;;;;;;19.67;100.00;100950.03;4985955;28;20022;-75
2022/06/26 05:00:09;;;;;;;38.70;26.27;;;;;;;19.95;100.00;100932.59;5002294;28;20407;-75
2022/06/26 05:02:38;;;;;;;34.22;23.95;;;;;;;20.22;100.00;100931.31;4985391;28;20030;-75
2022/06/26 05:05:16;;;;;;;34.65;23.92;;;;;;;20.22;100.00;100923.16;4994839;28;20400;-74
2022/06/26 05:07:47;;;;;;;29.17;22.35;;;;;;;20.61;100.00;100918.47;4987239;28;20057;-75
2022/06/26 05:10:12;;;;;;;29.90;23.73;;;;;;;20.79;100.00;100914.09;4985291;28;20121;-75
2022/06/26 05:12:53;;;;;;;32.33;24.88;;;;;;;20.41;100.00;100904.22;4971423;28;20026;-75
2022/06/26 05:15:32;;;;;;;31.10;21.38;;;;;;;20.78;100.00;100909.72;5014299;28;20049;-75
2022/06/26 05:17:59;;;;;;;25.73;21.35;;;;;;;21.15;100.00;100907.00;4984987;28;20572;-75
2022/06/26 05:20:24;;;;;;;28.80;21.80;;;;;;;21.24;100.00;100901.00;5017909;28;20029;-75
2022/06/26 05:22:52;;;;;;;29.33;21.30;;;;;;;20.89;100.00;100895.41;4993224;28;20195;-75
2022/06/26 05:25:18;;;;;;;27.45;20.48;;;;;;;21.14;100.00;100914.31;4994086;28;20026;-74
2022/06/26 05:27:44;;;;;;;26.50;21.52;;;;;;;21.35;100.00;100912.16;4968942;28;20377;-76
2022/06/26 05:30:11;;;;;;;29.00;22.35;;;;;;;21.33;100.00;100906.97;5001272;28;20040;-75
2022/06/26 05:32:39;;;;;;;26.73;20.95;;;;;;;21.37;100.00;100921.72;4985230;28;20045;-75
2022/06/26 05:35:08;;;;;;;24.20;20.38;;;;;;;21.82;100.00;100907.75;4993866;28;20018;-75
2022/06/26 05:37:34;;;;;;;21.37;19.17;;;;;;;21.30;100.00;100901.97;4984973;28;20041;-75
2022/06/26 05:40:00;;;;;;;28.60;22.73;;;;;;;21.44;100.00;100906.19;4984639;28;20034;-75
2022/06/26 05:42:25;;;;;;;20.73;18.50;;;;;;;21.97;100.00;100931.75;5000381;28;20034;-75
2022/06/26 05:44:51;;;;;;;24.73;19.67;;;;;;;23.00;100.00;100885.97;5000998;28;20317;-75
2022/06/26 05:47:18;;;;;;;20.15;18.02;;;;;;;23.50;100.00;100832.69;5017008;28;20034;-76
2022/06/26 05:50:03;;;;;;;21.20;17.50;;;;;;;24.70;100.00;100773.09;4980985;28;20084;-76
2022/06/26 05:52:36;;;;;;;22.77;13.38;;;;;;;25.51;100.00;100703.91;4999238;28;20085;-75
2022/06/26 05:55:33;;;;;;;15.77;12.13;;;;;;;26.56;100.00;100631.09;4967180;28;20783;-74
2022/06/26 05:58:19;;;;;;;18.90;13.90;;;;;;;27.20;100.00;100605.88;4984754;28;20277;-76
2022/06/26 06:01:03;;;;;;;15.45;13.85;;;;;;;27.51;100.00;100564.69;4983379;28;20053;-78
2022/06/26 06:03:28;;;;;;;13.02;11.07;;;;;;;27.37;100.00;100586.41;4986301;28;20030;-76
2022/06/26 06:05:57;;;;;;;12.88;10.52;;;;;;;27.94;100.00;100491.00;5001485;28;20034;-77
2022/06/26 06:08:23;;;;;;;13.57;9.77;;;;;;;27.38;100.00;100612.72;4984970;28;20034;-77
2022/06/26 06:10:49;;;;;;;12.38;11.18;;;;;;;26.30;100.00;100590.78;4993402;28;20719;-77
2022/06/26 06:13:14;;;;;;;;;;;;;;;26.93;100.00;100702.88;4977581;28;20169;-77
2022/06/26 06:15:41;;;;;;;14.73;9.98;;;;;;;26.57;100.00;100690.22;4993360;28;19924;-77
2022/06/26 06:18:07;;;;;;;15.02;11.80;;;;;;;25.01;100.00;100659.53;4992902;28;20034;-77
2022/06/26 06:20:35;;;;;;;12.82;10.80;;;;;;;24.84;100.00;100774.34;4985145;28;20019;-76
2022/06/26 06:23:04;;;;;;;14.70;9.75;;;;;;;24.95;100.00;100783.44;5017915;28;20038;-75
2022/06/26 06:25:29;;;;;;;11.00;8.80;;;;;;;24.77;100.00;100756.50;4993432;28;20495;-77
2022/06/26 06:27:59;;;;;;;21.77;11.55;;;;;;;23.79;100.00;100751.69;5008775;28;20420;-77
2022/06/26 06:30:28;;;;;;;12.60;9.98;;;;;;;23.38;100.00;100816.41;4993306;28;20026;-77
2022/06/26 06:32:54;;;;;;;14.00;10.52;;;;;;;23.48;100.00;100815.75;5001121;28;20029;-75
2022/06/26 06:35:30;;;;;;;14.00;10.77;;;;;;;23.20;100.00;100863.75;4986589;28;20039;-75
2022/06/26 06:37:56;;;;;;;13.18;9.32;;;;;;;23.62;100.00;100859.84;5000998;28;20050;-75
2022/06/26 06:40:22;;;;;;;15.77;10.77;;;;;;;23.80;100.00;100816.03;5017451;28;20082;-75
2022/06/26 06:42:51;;;;;;;12.93;9.18;;;;;;;24.08;100.00;100814.28;5017212;28;20038;-76
2022/06/26 06:45:16;;;;;;;14.23;10.67;;;;;;;23.83;100.00;100793.72;5017532;28;20022;-76
2022/06/26 06:47:58;;;;;;;17.73;11.63;;;;;;;23.08;100.00;100820.22;4984797;28;20038;-76
2022/06/26 06:50:38;;;;;;;12.95;10.73;;;;;;;23.49;100.00;100871.91;4985422;28;20484;-75
2022/06/26 06:53:04;;;;;;;;;;;;;;;23.49;100.00;100864.56;5005607;28;20162;-76
2022/06/26 06:55:30;;;;;;;11.73;10.57;;;;;;;23.62;100.00;100838.06;4997053;28;20356;-76
2022/06/26 06:57:57;;;;;;;11.45;10.18;;;;;;;24.02;100.00;100855.13;4996508;28;20434;-76
2022/06/26 07:00:23;;;;;;;12.57;10.98;;;;;;;23.87;100.00;100808.50;4972250;28;20028;-75
2022/06/26 07:02:50;;;;;;;14.10;10.70;;;;;;;24.58;100.00;100822.38;5004636;28;20485;-76
2022/06/26 07:05:19;;;;;;;15.05;9.98;;;;;;;24.29;100.00;100810.75;4990005;28;20102;-76
2022/06/26 07:07:45;;;;;;;12.15;10.68;;;;;;;23.99;100.00;100770.25;5004732;28;20030;-76
2022/06/26 07:10:11;;;;;;;11.18;10.00;;;;;;;24.69;100.00;100852.50;4988308;28;20388;-76
2022/06/26 07:12:37;;;;;;;13.27;9.40;;;;;;;25.21;100.00;100754.50;4994296;28;20061;-77
2022/06/26 07:15:03;;;;;;;12.70;9.65;;;;;;;25.30;100.00;100775.91;4980370;28;20062;-77
2022/06/26 07:17:29;;;;;;;11.07;9.98;;;;;;;25.15;100.00;100730.13;5021164;28;20030;-77
2022/06/26 07:19:55;;;;;;;12.77;10.10;;;;;;;24.92;100.00;100739.47;5021004;28;20032;-77
2022/06/26 07:22:20;;;;;;;13.88;8.88;;;;;;;24.78;100.00;100775.34;4988466;28;20039;-77
2022/06/26 07:24:47;;;;;;;10.65;8.75;;;;;;;25.03;100.00;100754.88;5004260;28;20017;-76
2022/06/26 07:27:35;;;;;;;9.95;8.27;;;;;;;24.94;100.00;100761.88;4996414;28;20487;-76
2022/06/26 07:30:00;;;;;;;11.82;9.13;;;;;;;24.96;100.00;100752.34;5020843;28;20026;-77
2022/06/26 07:32:27;;;;;;;10.07;9.07;;;;;;;24.47;100.00;100768.72;5021094;28;20542;-76
2022/06/26 07:34:54;;;;;;;9.40;8.35;;;;;;;24.59;100.00;100826.72;4996154;28;20062;-77
2022/06/26 07:37:19;;;;;;;9.98;8.65;;;;;;;24.98;100.00;100779.38;4979811;28;20022;-77
2022/06/26 07:39:45;;;;;;;9.93;7.97;;;;;;;25.76;100.00;100738.78;5012499;28;20026;-76
2022/06/26 07:42:11;;;;;;;11.50;8.82;;;;;;;25.70;100.00;100623.09;5004351;28;20049;-76
2022/06/26 07:44:39;;;;;;;9.07;7.63;;;;;;;25.76;100.00;100615.75;4989498;28;20026;-76
2022/06/26 07:47:04;;;;;;;11.70;8.43;;;;;;;25.43;100.00;100587.72;5004120;28;20026;-77
2022/06/26 07:49:44;;;;;;;8.40;7.43;;;;;;;25.95;100.00;100632.53;4995900;28;20340;-76
2022/06/26 07:52:10;;;;;;;;;;;;;;;26.04;100.00;100677.44;4996318;28;20092;-76
2022/06/26 07:54:35;;;;;;;7.20;6.55;;;;;;;26.59;100.00;100562.09;4987720;28;19944;-76
2022/06/26 07:57:01;;;;;;;8.52;6.63;;;;;;;26.59;100.00;100666.13;5003975;28;20030;-76
2022/06/26 07:59:26;;;;;;;8.88;7.07;;;;;;;26.22;100.00;100577.66;5020212;28;20031;-77
2022/06/26 08:01:52;;;;;;;7.53;6.80;;;;;;;26.44;100.00;100636.78;4988573;28;20042;-77
2022/06/26 08:04:17;;;;;;;9.07;6.63;;;;;;;26.21;100.00;100572.44;5003319;28;20033;-77
2022/06/26 08:06:43;;;;;;;7.25;6.35;;;;;;;26.52;100.00;100541.25;5020327;28;20034;-77
2022/06/26 08:09:08;;;;;;;9.15;6.00;;;;;;;26.09;100.00;100559.00;5003828;28;20062;-76
2022/06/26 08:11:34;;;;;;;6.78;6.07;;;;;;;26.70;100.00;100552.78;5020266;28;20089;-76
2022/06/26 08:14:00;;;;;;;7.27;5.27;;;;;;;26.18;100.00;100406.09;5003766;28;20059;-77
2022/06/26 08:16:25;;;;;;;6.53;5.40;;;;;;;26.53;100.00;100547.56;5003555;28;20301;-76
2022/06/26 08:18:51;;;;;;;5.47;4.97;;;;;;;26.38;100.00;100386.91;4987201;28;20041;-76
2022/06/26 08:24:02;;;;;;;5.90;4.93;;;;;;;27.26;100.00;100541.75;5003179;28;20046;-76
2022/06/26 08:26:27;;;;;;;7.78;5.20;;;;;;;27.63;94.03;100384.22;4988262;28;20018;-77
2022/06/26 08:28:53;;;;;;;5.80;4.50;;;;;;;27.22;92.86;100339.81;4994915;28;20054;-76
2022/06/26 08:31:18;;;;;;;6.50;4.70;;;;;;;26.58;98.37;100352.41;5019436;28;20118;-77
2022/06/26 08:33:44;;;;;;;5.90;4.20;;;;;;;26.64;91.03;100278.16;5002459;28;20040;-76
2022/06/26 08:36:09;;;;;;;6.90;4.43;;;;;;;27.06;90.39;100355.47;4986744;28;20878;-76
2022/06/26 08:38:35;;;;;;;6.95;4.55;;;;;;;27.35;86.23;100328.22;5002575;28;20038;-77
2022/06/26 08:41:01;;;;;;;5.75;4.32;;;;;;;27.75;88.57;100436.78;5019544;28;20026;-76
2022/06/26 08:43:28;;;;;;;7.30;4.88;;;;;;;27.93;89.42;100448.19;4987750;28;20057;-77
2022/06/26 08:45:54;;;;;;;5.07;4.57;;;;;;;28.59;82.87;100422.94;4987852;28;20022;-77
2022/06/26 08:48:23;;;;;;;;;;;;;;;28.04;81.12;100307.09;5003108;28;20125;-77
2022/06/26 08:50:49;;;;;;;4.90;4.50;;;;;;;28.21;82.07;100372.50;4987682;28;19911;-77
2022/06/26 08:53:15;;;;;;;5.97;3.70;;;;;;;28.20;74.84;100239.97;4987815;28;20046;-77
2022/06/26 08:55:42;;;;;;;4.57;4.18;;;;;;;27.58;78.04;100220.56;4987890;28;20130;-76
2022/06/26 08:58:07;;;;;;;5.25;3.70;;;;;;;28.49;70.65;100233.59;5019284;28;20081;-77
2022/06/26 09:00:33;;;;;;;4.65;4.03;;;;;;;27.95;68.12;100078.41;4978899;28;20018;-77
2022/06/26 09:02:58;;;;;;;5.43;3.80;;;;;;;27.98;69.88;100176.59;4987692;28;20119;-76
2022/06/26 09:05:24;;;;;;;;;;;;;;;28.88;68.39;100305.88;5003549;28;20022;-77
2022/06/26 09:07:52;;;;;;;7.57;4.43;;;;;;;28.80;69.02;100283.44;4986772;28;19914;-77
2022/06/26 09:10:18;;;;;;;5.63;3.92;;;;;;;29.62;63.17;100229.97;5010151;28;20061;-77
2022/06/26 09:12:54;;;;;;;;;;;;;;;28.85;67.61;100226.81;5019465;28;20069;-77
2022/06/26 09:15:21;;;;;;;8.88;3.97;;;;;;;29.52;65.78;100309.06;4987165;28;19917;-77
2022/06/26 09:17:55;;;;;;;6.45;4.28;;;;;;;29.71;65.10;100325.56;4970390;28;20025;-78
2022/06/26 09:20:20;;;;;;;4.32;3.92;;;;;;;29.52;62.02;100185.31;5019946;28;20433;-76
2022/06/26 09:22:56;;;;;;;5.13;4.47;;;;;;;30.04;58.59;100155.72;4989175;28;20026;-76
2022/06/26 09:25:36;;;;;;;6.75;5.15;;;;;;;30.35;58.71;100210.19;5020122;28;20049;-78
2022/06/26 09:28:13;;;;;;;6.65;4.25;;;;;;;29.90;57.34;100089.72;4996001;28;20037;-77
2022/06/26 09:30:52;;;;;;;4.82;4.28;;;;;;;30.71;58.65;100285.38;5012442;28;20049;-77
2022/06/26 09:33:24;;;;;;;5.40;4.45;;;;;;;29.17;58.90;99997.94;4987279;28;20049;-77
2022/06/26 09:35:50;;;;;;;6.28;4.85;;;;;;;29.36;61.14;100130.63;4989613;28;20038;-77
2022/06/26 09:38:20;;;;;;;;;;;;;;;29.94;58.26;100180.69;4989868;28;20196;-78
2022/06/26 09:40:52;;;;;;;7.00;4.70;;;;;;;29.54;57.49;100057.41;4989879;28;19914;-78
2022/06/26 09:43:36;;;;;;;6.57;4.70;;;;;;;29.95;60.12;100268.47;4988095;28;20038;-77
2022/06/26 09:46:08;;;;;;;7.82;4.60;;;;;;;30.50;55.72;100202.38;5005202;28;20034;-77
2022/06/26 09:48:34;;;;;;;8.48;5.18;;;;;;;30.62;55.62;100262.44;4981328;28;20065;-77
2022/06/26 09:51:01;;;;;;;5.78;4.50;;;;;;;30.37;54.33;100166.59;4988354;28;20049;-77
2022/06/26 09:53:28;;;;;;;6.68;4.20;;;;;;;30.90;54.36;100285.28;5021146;28;20027;-78
2022/06/26 09:55:56;;;;;;;5.13;4.22;;;;;;;31.28;51.76;100199.50;4989669;28;20030;-77
2022/06/26 09:58:23;;;;;;;6.93;4.70;;;;;;;30.61;51.80;100057.00;4988749;28;20038;-77
2022/06/26 10:06:26;;;;;;;7.07;4.45;;;;;;;31.73;51.39;100284.97;5004901;28;20030;-78
2022/06/26 10:08:57;;;;;;;5.57;3.67;;;;;;;32.49;49.94;100319.91;4988999;28;20038;-78
2022/06/26 10:11:25;;;;;;;3.83;3.50;;;;;;;32.30;46.29;100082.66;4977421;28;20488;-77
2022/06/26 10:13:58;;;;;;;4.88;3.30;;;;;;;32.16;45.78;100048.88;4986410;28;20080;-76
2022/06/26 10:16:29;;;;;;;3.33;3.03;;;;;;;31.27;46.59;99915.78;4986458;28;20089;-77
2022/06/26 10:19:09;;;;;;;3.80;2.60;;;;;;;32.25;46.03;100102.16;5017756;28;20038;-77
2022/06/26 10:21:37;;;;;;;3.22;2.90;;;;;;;32.20;44.82;100016.72;5010635;28;20106;-77
2022/06/26 10:24:04;;;;;;;4.75;3.63;;;;;;;31.55;45.29;99903.38;4993355;28;20022;-76
2022/06/26 10:26:31;;;;;;;6.50;3.25;;;;;;;32.11;46.22;100094.03;5003070;28;20404;-76
2022/06/26 10:29:08;;;;;;;4.07;2.72;;;;;;;31.70;44.77;99913.13;4980705;28;20033;-77
2022/06/26 10:31:47;;;;;;;5.78;3.10;;;;;;;32.01;45.06;100036.38;4997577;28;20087;-77
2022/06/26 10:34:19;;;;;;;4.68;2.67;;;;;;;32.28;45.99;100140.16;5019420;28;20057;-76
2022/06/26 10:37:06;;;;;;;4.75;3.03;;;;;;;33.09;44.30;100191.28;5021707;28;20488;-76
2022/06/26 10:39:38;;;;;;;4.55;3.72;;;;;;;32.24;44.27;99951.44;4967400;28;20141;-76
2022/06/26 10:44:58;;;;;;;2.80;2.60;;;;;;;31.67;43.31;99788.78;4984873;28;20030;-77
2022/06/26 10:47:23;;;;;;;3.70;2.88;;;;;;;32.17;43.78;100006.31;5021494;28;20034;-77
2022/06/26 10:49:50;;;;;;;;;;;;;;;32.72;42.30;99986.28;4997163;28;20019;-77
2022/06/26 10:52:27;;;;;;;3.85;2.58;;;;;;;31.81;41.91;99783.91;5021421;28;19917;-77
2022/06/26 10:54:54;;;;;;;4.00;2.55;;;;;;;32.52;42.81;100015.44;4995955;28;20101;-76
2022/06/26 10:57:34;;;;;;;3.85;2.38;;;;;;;32.46;43.11;100007.59;4989309;28;20022;-77
2022/06/26 11:00:02;;;;;;;2.80;2.45;;;;;;;33.06;42.05;100045.41;4989482;28;20038;-77
2022/06/26 11:02:37;;;;;;;2.85;2.47;;;;;;;32.58;41.92;99971.84;4989569;28;20480;-77
2022/06/26 11:05:04;;;;;;;3.33;2.60;;;;;;;33.52;41.93;100104.59;5017824;28;20030;-77
2022/06/26 11:07:40;;;;;;;7.22;2.47;;;;;;;33.04;42.39;100010.88;5021333;28;20018;-77
2022/06/26 11:10:18;;;;;;;2.80;2.60;;;;;;;31.88;44.15;99878.03;4986210;28;20530;-77
2022/06/26 11:12:46;;;;;;;3.25;2.65;;;;;;;32.15;45.40;100030.69;5004206;28;20038;-77
2022/06/26 11:15:33;;;;;;;3.53;2.97;;;;;;;30.71;46.58;99841.84;5020931;28;20022;-77
2022/06/26 11:18:01;;;;;;;3.33;2.70;;;;;;;31.80;42.96;99848.50;4989263;28;20041;-77
2022/06/26 11:20:51;;;;;;;5.45;2.50;;;;;;;32.94;41.30;99967.81;4988481;28;20431;-77
2022/06/26 11:23:20;;;;;;;3.25;2.60;;;;;;;32.66;40.08;99777.59;4987216;28;20065;-77
2022/06/26 11:25:47;;;;;;;5.32;2.85;;;;;;;31.01;42.44;99574.78;5003773;28;20117;-76
2022/06/26 11:28:13;;;;;;;2.90;2.20;;;;;;;31.24;43.54;99771.13;5003471;28;20038;-77
2022/06/26 11:30:40;;;;;;;;;;;;;;;30.69;44.14;99670.56;4989242;28;20030;-77
2022/06/26 11:33:07;;;;;;;2.75;2.40;;;;;;;30.18;45.92;99731.81;4996593;28;20288;-76
2022/06/26 11:35:34;;;;;;;3.50;2.33;;;;;;;31.27;44.33;99924.88;5020133;28;20468;-77